sensor_id;sensor_type;location;lat;lon;timestamp;pressure;altitude;pressure_sealevel;temperature;humidity
20656;BME280;10487;53.320;8.672;2023-05-09T00:01:05;101687.72;;;11.84;45.47
20656;BME280;10487;53.320;8.672;2023-05-09T00:04:07;101680.75;;;11.81;45.67
20656;BME280;10487;53.320;8.672;2023-05-09T00:07:09;101681.72;;;11.80;45.55
20656;BME280;10487;53.320;8.672;2023-05-09T00:10:11;101685.31;;;11.79;45.66
20656;BME280;10487;53.320;8.672;2023-05-09T00:13:12;101677.59;;;11.75;45.28
20656;BME280;10487;53.320;8.672;2023-05-09T00:16:14;101678.66;;;11.72;45.40
20656;BME280;10487;53.320;8.672;2023-05-09T00:19:16;101672.66;;;11.69;45.58
20656;BME280;10487;53.320;8.672;2023-05-09T00:22:18;101675.63;;;11.64;45.71
20656;BME280;10487;53.320;8.672;2023-05-09T00:25:24;101677.53;;;11.62;45.44
20656;BME280;10487;53.320;8.672;2023-05-09T00:28:25;101669.81;;;11.58;45.38
20656;BME280;10487;53.320;8.672;2023-05-09T00:31:27;101667.44;;;11.53;45.37
20656;BME280;10487;53.320;8.672;2023-05-09T00:34:29;101665.78;;;11.51;45.52
20656;BME280;10487;53.320;8.672;2023-05-09T00:37:31;101658.81;;;11.48;45.76
20656;BME280;10487;53.320;8.672;2023-05-09T00:40:32;101659.84;;;11.46;45.42
20656;BME280;10487;53.320;8.672;2023-05-09T00:43:34;101653.00;;;11.42;45.37
20656;BME280;10487;53.320;8.672;2023-05-09T00:46:36;101645.16;;;11.39;45.35
20656;BME280;10487;53.320;8.672;2023-05-09T00:49:37;101633.81;;;11.35;45.37
20656;BME280;10487;53.320;8.672;2023-05-09T00:52:40;101638.50;;;11.32;45.57
20656;BME280;10487;53.320;8.672;2023-05-09T00:55:41;101621.78;;;11.28;45.74
20656;BME280;10487;53.320;8.672;2023-05-09T00:58:43;101624.66;;;11.25;45.53
20656;BME280;10487;53.320;8.672;2023-05-09T01:01:45;101616.84;;;11.22;45.69
20656;BME280;10487;53.320;8.672;2023-05-09T01:04:47;101611.75;;;11.17;45.57
20656;BME280;10487;53.320;8.672;2023-05-09T01:07:54;101613.78;;;11.14;45.45
20656;BME280;10487;53.320;8.672;2023-05-09T01:11:05;101611.47;;;11.08;45.38
20656;BME280;10487;53.320;8.672;2023-05-09T01:17:59;101602.06;;;11.02;45.59
20656;BME280;10487;53.320;8.672;2023-05-09T01:21:06;101602.25;;;10.99;45.65
20656;BME280;10487;53.320;8.672;2023-05-09T01:24:23;101597.97;;;10.97;45.63
20656;BME280;10487;53.320;8.672;2023-05-09T01:30:29;101601.97;;;10.90;45.58
20656;BME280;10487;53.320;8.672;2023-05-09T01:33:32;101598.50;;;10.88;45.53
20656;BME280;10487;53.320;8.672;2023-05-09T01:36:39;101588.97;;;10.84;45.63
20656;BME280;10487;53.320;8.672;2023-05-09T01:39:46;101593.72;;;10.79;45.53
20656;BME280;10487;53.320;8.672;2023-05-09T01:42:57;101582.47;;;10.74;45.77
20656;BME280;10487;53.320;8.672;2023-05-09T01:46:01;101581.03;;;10.68;45.85
20656;BME280;10487;53.320;8.672;2023-05-09T01:49:06;101581.44;;;10.62;45.74
20656;BME280;10487;53.320;8.672;2023-05-09T01:52:14;101579.97;;;10.57;45.69
20656;BME280;10487;53.320;8.672;2023-05-09T01:55:17;101573.13;;;10.52;45.88
20656;BME280;10487;53.320;8.672;2023-05-09T01:58:20;101569.66;;;10.50;45.77
20656;BME280;10487;53.320;8.672;2023-05-09T02:01:22;101561.88;;;10.47;45.84
20656;BME280;10487;53.320;8.672;2023-05-09T02:04:26;101561.94;;;10.46;45.96
20656;BME280;10487;53.320;8.672;2023-05-09T02:07:28;101563.06;;;10.42;45.77
20656;BME280;10487;53.320;8.672;2023-05-09T02:10:31;101560.50;;;10.40;45.77
20656;BME280;10487;53.320;8.672;2023-05-09T02:13:33;101553.59;;;10.36;45.92
20656;BME280;10487;53.320;8.672;2023-05-09T02:16:35;101550.19;;;10.34;45.85
20656;BME280;10487;53.320;8.672;2023-05-09T02:19:39;101560.16;;;10.31;45.89
20656;BME280;10487;53.320;8.672;2023-05-09T02:22:42;101558.53;;;10.28;45.85
20656;BME280;10487;53.320;8.672;2023-05-09T02:25:44;101556.84;;;10.27;45.80
20656;BME280;10487;53.320;8.672;2023-05-09T02:28:47;101547.97;;;10.27;45.83
20656;BME280;10487;53.320;8.672;2023-05-09T02:31:49;101542.81;;;10.24;45.76
20656;BME280;10487;53.320;8.672;2023-05-09T02:34:53;101534.22;;;10.19;45.65
20656;BME280;10487;53.320;8.672;2023-05-09T02:37:56;101537.09;;;10.16;45.80
20656;BME280;10487;53.320;8.672;2023-05-09T02:40:58;101545.28;;;10.13;45.80
20656;BME280;10487;53.320;8.672;2023-05-09T02:44:00;101541.91;;;10.09;45.78
20656;BME280;10487;53.320;8.672;2023-05-09T02:47:04;101535.91;;;10.06;45.86
20656;BME280;10487;53.320;8.672;2023-05-09T02:50:07;101534.28;;;10.03;45.80
20656;BME280;10487;53.320;8.672;2023-05-09T02:53:08;101534.53;;;9.99;45.82
20656;BME280;10487;53.320;8.672;2023-05-09T02:56:10;101529.47;;;9.94;45.86
20656;BME280;10487;53.320;8.672;2023-05-09T02:59:12;101531.66;;;9.87;45.83
20656;BME280;10487;53.320;8.672;2023-05-09T03:02:13;101524.88;;;9.82;45.86
20656;BME280;10487;53.320;8.672;2023-05-09T03:05:15;101526.94;;;9.77;45.92
20656;BME280;10487;53.320;8.672;2023-05-09T03:08:17;101514.00;;;9.71;45.96
20656;BME280;10487;53.320;8.672;2023-05-09T03:11:19;101515.19;;;9.65;45.91
20656;BME280;10487;53.320;8.672;2023-05-09T03:14:21;101521.72;;;9.60;45.99
20656;BME280;10487;53.320;8.672;2023-05-09T03:17:22;101518.38;;;9.56;45.99
20656;BME280;10487;53.320;8.672;2023-05-09T03:20:25;101520.28;;;9.54;46.00
20656;BME280;10487;53.320;8.672;2023-05-09T03:23:27;101514.28;;;9.51;45.92
20656;BME280;10487;53.320;8.672;2023-05-09T03:26:29;101512.53;;;9.50;45.96
20656;BME280;10487;53.320;8.672;2023-05-09T03:29:31;101515.38;;;9.47;45.92
20656;BME280;10487;53.320;8.672;2023-05-09T03:32:32;101508.50;;;9.43;45.91
20656;BME280;10487;53.320;8.672;2023-05-09T03:35:34;101506.03;;;9.40;45.97
20656;BME280;10487;53.320;8.672;2023-05-09T03:38:35;101513.16;;;9.39;46.09
20656;BME280;10487;53.320;8.672;2023-05-09T03:41:37;101514.88;;;9.40;45.99
20656;BME280;10487;53.320;8.672;2023-05-09T03:44:39;101513.25;;;9.38;45.86
20656;BME280;10487;53.320;8.672;2023-05-09T03:47:40;101510.75;;;9.35;45.85
20656;BME280;10487;53.320;8.672;2023-05-09T03:50:42;101502.22;;;9.28;45.94
20656;BME280;10487;53.320;8.672;2023-05-09T03:53:46;101502.50;;;9.23;46.08
20656;BME280;10487;53.320;8.672;2023-05-09T03:56:48;101490.28;;;9.19;46.08
20656;BME280;10487;53.320;8.672;2023-05-09T03:59:50;101481.69;;;9.14;46.12
20656;BME280;10487;53.320;8.672;2023-05-09T04:02:51;101488.91;;;9.12;46.11
20656;BME280;10487;53.320;8.672;2023-05-09T04:05:54;101488.22;;;9.09;46.05
20656;BME280;10487;53.320;8.672;2023-05-09T04:08:55;101485.63;;;9.07;46.17
20656;BME280;10487;53.320;8.672;2023-05-09T04:11:57;101487.38;;;9.08;46.04
20656;BME280;10487;53.320;8.672;2023-05-09T04:14:59;101488.13;;;9.10;46.11
20656;BME280;10487;53.320;8.672;2023-05-09T04:18:00;101487.09;;;9.13;46.09
20656;BME280;10487;53.320;8.672;2023-05-09T04:21:02;101495.84;;;9.15;46.03
20656;BME280;10487;53.320;8.672;2023-05-09T04:24:04;101491.41;;;9.15;46.00
20656;BME280;10487;53.320;8.672;2023-05-09T04:27:06;101487.00;;;9.14;46.07
20656;BME280;10487;53.320;8.672;2023-05-09T04:30:08;101484.19;;;9.17;46.08
20656;BME280;10487;53.320;8.672;2023-05-09T04:33:10;101478.69;;;9.20;46.01
20656;BME280;10487;53.320;8.672;2023-05-09T04:36:12;101475.94;;;9.22;46.05
20656;BME280;10487;53.320;8.672;2023-05-09T04:39:13;101469.56;;;9.24;46.00
20656;BME280;10487;53.320;8.672;2023-05-09T04:42:15;101472.06;;;9.27;46.07
20656;BME280;10487;53.320;8.672;2023-05-09T04:45:17;101471.94;;;9.31;45.96
20656;BME280;10487;53.320;8.672;2023-05-09T04:48:18;101468.22;;;9.33;46.08
20656;BME280;10487;53.320;8.672;2023-05-09T04:51:20;101470.97;;;9.32;46.05
20656;BME280;10487;53.320;8.672;2023-05-09T04:54:21;101468.06;;;9.36;45.97
20656;BME280;10487;53.320;8.672;2023-05-09T04:57:23;101467.81;;;9.41;45.96
20656;BME280;10487;53.320;8.672;2023-05-09T05:00:24;101458.84;;;9.42;46.13
20656;BME280;10487;53.320;8.672;2023-05-09T05:03:26;101458.66;;;9.45;45.97
20656;BME280;10487;53.320;8.672;2023-05-09T05:06:27;101457.63;;;9.47;46.07
20656;BME280;10487;53.320;8.672;2023-05-09T05:09:29;101454.69;;;9.52;46.00
20656;BME280;10487;53.320;8.672;2023-05-09T05:12:31;101451.69;;;9.58;45.96
20656;BME280;10487;53.320;8.672;2023-05-09T05:15:33;101457.63;;;9.63;46.01
20656;BME280;10487;53.320;8.672;2023-05-09T05:18:34;101445.75;;;9.68;45.96
20656;BME280;10487;53.320;8.672;2023-05-09T05:21:36;101451.84;;;9.70;45.78
20656;BME280;10487;53.320;8.672;2023-05-09T05:24:37;101444.69;;;9.71;45.88
20656;BME280;10487;53.320;8.672;2023-05-09T05:27:39;101434.97;;;9.70;45.90
20656;BME280;10487;53.320;8.672;2023-05-09T05:30:41;101428.88;;;9.68;45.96
20656;BME280;10487;53.320;8.672;2023-05-09T05:33:42;101432.50;;;9.67;45.99
20656;BME280;10487;53.320;8.672;2023-05-09T05:36:44;101437.06;;;9.65;46.08
20656;BME280;10487;53.320;8.672;2023-05-09T05:39:46;101434.50;;;9.63;46.00
20656;BME280;10487;53.320;8.672;2023-05-09T05:42:47;101436.94;;;9.66;46.05
20656;BME280;10487;53.320;8.672;2023-05-09T05:45:49;101434.03;;;9.71;46.08
20656;BME280;10487;53.320;8.672;2023-05-09T05:48:51;101427.69;;;9.87;46.12
20656;BME280;10487;53.320;8.672;2023-05-09T05:51:53;101435.81;;;10.00;45.84
20656;BME280;10487;53.320;8.672;2023-05-09T05:54:54;101424.00;;;10.04;45.98
20656;BME280;10487;53.320;8.672;2023-05-09T05:57:56;101419.34;;;10.08;45.94
20656;BME280;10487;53.320;8.672;2023-05-09T06:00:58;101415.53;;;10.12;45.93
20656;BME280;10487;53.320;8.672;2023-05-09T06:03:59;101419.53;;;10.19;45.95
20656;BME280;10487;53.320;8.672;2023-05-09T06:07:01;101418.41;;;10.23;45.86
20656;BME280;10487;53.320;8.672;2023-05-09T06:10:03;101411.06;;;10.26;45.93
20656;BME280;10487;53.320;8.672;2023-05-09T06:13:04;101415.06;;;10.33;46.13
20656;BME280;10487;53.320;8.672;2023-05-09T06:16:07;101410.03;;;10.43;46.06
20656;BME280;10487;53.320;8.672;2023-05-09T06:19:20;101404.03;;;10.53;45.98
20656;BME280;10487;53.320;8.672;2023-05-09T06:22:22;101403.56;;;10.61;46.10
20656;BME280;10487;53.320;8.672;2023-05-09T06:25:23;101394.19;;;10.68;45.90
20656;BME280;10487;53.320;8.672;2023-05-09T06:28:25;101391.91;;;10.76;45.80
20656;BME280;10487;53.320;8.672;2023-05-09T06:31:27;101386.81;;;10.86;46.04
20656;BME280;10487;53.320;8.672;2023-05-09T06:34:29;101382.53;;;10.97;45.90
20656;BME280;10487;53.320;8.672;2023-05-09T06:37:33;101383.41;;;11.10;45.77
20656;BME280;10487;53.320;8.672;2023-05-09T06:40:35;101376.31;;;11.24;45.86
20656;BME280;10487;53.320;8.672;2023-05-09T06:43:37;101370.25;;;11.34;45.76
20656;BME280;10487;53.320;8.672;2023-05-09T06:46:38;101373.91;;;11.46;45.95
20656;BME280;10487;53.320;8.672;2023-05-09T06:49:40;101365.22;;;11.56;45.50
20656;BME280;10487;53.320;8.672;2023-05-09T06:52:42;101356.34;;;11.68;45.92
20656;BME280;10487;53.320;8.672;2023-05-09T06:55:43;101355.63;;;11.79;45.70
20656;BME280;10487;53.320;8.672;2023-05-09T06:58:45;101351.88;;;11.94;45.73
20656;BME280;10487;53.320;8.672;2023-05-09T07:01:47;101347.34;;;12.07;45.59
20656;BME280;10487;53.320;8.672;2023-05-09T07:04:48;101340.19;;;12.20;45.87
20656;BME280;10487;53.320;8.672;2023-05-09T07:07:50;101342.84;;;12.33;45.42
20656;BME280;10487;53.320;8.672;2023-05-09T07:10:52;101338.41;;;12.44;45.58
20656;BME280;10487;53.320;8.672;2023-05-09T07:13:53;101322.50;;;12.56;45.46
20656;BME280;10487;53.320;8.672;2023-05-09T07:16:55;101326.81;;;12.69;45.50
20656;BME280;10487;53.320;8.672;2023-05-09T07:20:14;101322.91;;;12.86;45.38
20656;BME280;10487;53.320;8.672;2023-05-09T07:23:16;101327.88;;;13.03;45.45
20656;BME280;10487;53.320;8.672;2023-05-09T07:26:17;101316.97;;;13.17;45.77
20656;BME280;10487;53.320;8.672;2023-05-09T07:29:19;101322.88;;;13.33;45.41
20656;BME280;10487;53.320;8.672;2023-05-09T07:32:21;101311.13;;;13.47;45.31
20656;BME280;10487;53.320;8.672;2023-05-09T07:35:22;101301.41;;;13.57;45.27
20656;BME280;10487;53.320;8.672;2023-05-09T07:38:24;101294.34;;;13.67;45.31
20656;BME280;10487;53.320;8.672;2023-05-09T07:41:25;101298.97;;;13.76;45.42
20656;BME280;10487;53.320;8.672;2023-05-09T07:44:27;101305.25;;;13.88;45.32
20656;BME280;10487;53.320;8.672;2023-05-09T07:47:29;101296.22;;;14.00;45.33
20656;BME280;10487;53.320;8.672;2023-05-09T07:50:30;101288.03;;;14.12;45.42
20656;BME280;10487;53.320;8.672;2023-05-09T07:53:32;101290.69;;;14.23;45.38
20656;BME280;10487;53.320;8.672;2023-05-09T07:56:33;101295.09;;;14.35;45.31
20656;BME280;10487;53.320;8.672;2023-05-09T07:59:35;101282.31;;;14.39;45.40
20656;BME280;10487;53.320;8.672;2023-05-09T08:02:37;101281.31;;;14.40;45.36
20656;BME280;10487;53.320;8.672;2023-05-09T08:05:39;101269.22;;;14.46;45.41
20656;BME280;10487;53.320;8.672;2023-05-09T08:08:41;101265.53;;;14.58;45.47
20656;BME280;10487;53.320;8.672;2023-05-09T08:11:43;101265.28;;;14.72;45.39
20656;BME280;10487;53.320;8.672;2023-05-09T08:14:44;101264.97;;;14.86;45.46
20656;BME280;10487;53.320;8.672;2023-05-09T08:17:47;101257.84;;;14.96;45.55
20656;BME280;10487;53.320;8.672;2023-05-09T08:20:49;101244.34;;;15.07;45.55
20656;BME280;10487;53.320;8.672;2023-05-09T08:23:51;101240.03;;;15.16;45.28
20656;BME280;10487;53.320;8.672;2023-05-09T08:26:53;101241.94;;;15.25;45.47
20656;BME280;10487;53.320;8.672;2023-05-09T08:29:55;101238.59;;;15.32;45.29
20656;BME280;10487;53.320;8.672;2023-05-09T08:32:56;101239.78;;;15.39;45.33
20656;BME280;10487;53.320;8.672;2023-05-09T08:35:58;101231.66;;;15.50;45.42
20656;BME280;10487;53.320;8.672;2023-05-09T08:39:00;101230.84;;;15.59;45.40
20656;BME280;10487;53.320;8.672;2023-05-09T08:42:02;101224.22;;;15.63;45.39
20656;BME280;10487;53.320;8.672;2023-05-09T08:45:12;101220.97;;;15.70;45.33
20656;BME280;10487;53.320;8.672;2023-05-09T08:48:17;101225.84;;;15.76;45.34
20656;BME280;10487;53.320;8.672;2023-05-09T08:51:19;101213.72;;;15.91;45.33
20656;BME280;10487;53.320;8.672;2023-05-09T08:54:22;101213.50;;;16.03;45.20
20656;BME280;10487;53.320;8.672;2023-05-09T08:57:25;101225.19;;;16.13;45.32
20656;BME280;10487;53.320;8.672;2023-05-09T09:00:28;101205.66;;;16.21;45.10
20656;BME280;10487;53.320;8.672;2023-05-09T09:03:30;101202.25;;;16.28;45.24
20656;BME280;10487;53.320;8.672;2023-05-09T09:06:33;101194.03;;;16.40;45.24
20656;BME280;10487;53.320;8.672;2023-05-09T09:09:36;101189.38;;;16.51;45.03
20656;BME280;10487;53.320;8.672;2023-05-09T09:12:38;101182.13;;;16.61;45.21
20656;BME280;10487;53.320;8.672;2023-05-09T09:15:42;101183.84;;;16.72;45.27
20656;BME280;10487;53.320;8.672;2023-05-09T09:18:44;101183.44;;;16.86;44.90
20656;BME280;10487;53.320;8.672;2023-05-09T09:21:47;101176.78;;;17.00;45.27
20656;BME280;10487;53.320;8.672;2023-05-09T09:24:50;101172.63;;;17.15;45.04
20656;BME280;10487;53.320;8.672;2023-05-09T09:27:51;101160.69;;;17.27;45.06
20656;BME280;10487;53.320;8.672;2023-05-09T09:30:53;101166.22;;;17.35;44.87
20656;BME280;10487;53.320;8.672;2023-05-09T09:33:59;101157.78;;;17.47;44.64
20656;BME280;10487;53.320;8.672;2023-05-09T09:37:01;101147.50;;;17.61;44.65
20656;BME280;10487;53.320;8.672;2023-05-09T09:40:03;101149.44;;;17.78;44.56
20656;BME280;10487;53.320;8.672;2023-05-09T09:43:08;101149.63;;;17.94;44.75
20656;BME280;10487;53.320;8.672;2023-05-09T09:46:12;101155.38;;;18.08;44.51
20656;BME280;10487;53.320;8.672;2023-05-09T09:49:24;101149.38;;;18.14;44.61
20656;BME280;10487;53.320;8.672;2023-05-09T09:52:26;101153.47;;;18.18;44.26
20656;BME280;10487;53.320;8.672;2023-05-09T09:55:28;101153.84;;;18.24;44.75
20656;BME280;10487;53.320;8.672;2023-05-09T09:58:30;101146.44;;;18.26;44.44
20656;BME280;10487;53.320;8.672;2023-05-09T10:01:31;101143.97;;;18.32;44.36
20656;BME280;10487;53.320;8.672;2023-05-09T10:04:37;101133.44;;;18.39;44.40
20656;BME280;10487;53.320;8.672;2023-05-09T10:07:39;101135.00;;;18.41;44.66
20656;BME280;10487;53.320;8.672;2023-05-09T10:10:41;101130.44;;;18.42;44.09
20656;BME280;10487;53.320;8.672;2023-05-09T10:13:44;101131.13;;;18.44;44.27
20656;BME280;10487;53.320;8.672;2023-05-09T10:16:50;101125.66;;;18.53;44.31
20656;BME280;10487;53.320;8.672;2023-05-09T10:19:53;101125.72;;;18.61;44.22
20656;BME280;10487;53.320;8.672;2023-05-09T10:23:00;101106.84;;;18.69;44.44
20656;BME280;10487;53.320;8.672;2023-05-09T10:26:23;101109.78;;;18.76;44.03
20656;BME280;10487;53.320;8.672;2023-05-09T10:29:28;101094.63;;;18.83;43.94
20656;BME280;10487;53.320;8.672;2023-05-09T10:35:53;101096.53;;;19.08;43.85
20656;BME280;10487;53.320;8.672;2023-05-09T10:38:56;101083.06;;;19.16;44.35
20656;BME280;10487;53.320;8.672;2023-05-09T10:41:59;101083.78;;;19.26;44.11
20656;BME280;10487;53.320;8.672;2023-05-09T10:45:01;101065.91;;;19.33;44.17
20656;BME280;10487;53.320;8.672;2023-05-09T10:48:04;101068.97;;;19.38;44.05
20656;BME280;10487;53.320;8.672;2023-05-09T10:51:09;101065.41;;;19.38;43.71
20656;BME280;10487;53.320;8.672;2023-05-09T10:54:25;101069.47;;;19.42;43.77
20656;BME280;10487;53.320;8.672;2023-05-09T10:57:31;101059.50;;;19.42;44.10
20656;BME280;10487;53.320;8.672;2023-05-09T11:00:32;101051.94;;;19.46;43.68
20656;BME280;10487;53.320;8.672;2023-05-09T11:03:57;101052.44;;;19.50;43.99
20656;BME280;10487;53.320;8.672;2023-05-09T11:06:59;101038.09;;;19.57;43.62
20656;BME280;10487;53.320;8.672;2023-05-09T11:10:08;101031.53;;;19.68;43.53
20656;BME280;10487;53.320;8.672;2023-05-09T11:13:10;101040.69;;;19.75;43.64
20656;BME280;10487;53.320;8.672;2023-05-09T11:16:12;101043.44;;;19.91;43.73
20656;BME280;10487;53.320;8.672;2023-05-09T11:19:32;101036.19;;;19.99;43.49
20656;BME280;10487;53.320;8.672;2023-05-09T11:22:39;101039.06;;;19.98;43.25
20656;BME280;10487;53.320;8.672;2023-05-09T11:25:44;101033.31;;;20.01;43.24
20656;BME280;10487;53.320;8.672;2023-05-09T11:28:53;101030.47;;;20.11;43.46
20656;BME280;10487;53.320;8.672;2023-05-09T11:32:05;101029.09;;;20.06;43.12
20656;BME280;10487;53.320;8.672;2023-05-09T11:38:19;101005.03;;;20.03;42.95
20656;BME280;10487;53.320;8.672;2023-05-09T11:41:21;101001.50;;;20.03;42.94
20656;BME280;10487;53.320;8.672;2023-05-09T11:44:23;100997.09;;;20.10;43.15
20656;BME280;10487;53.320;8.672;2023-05-09T11:47:25;100998.78;;;20.19;43.15
20656;BME280;10487;53.320;8.672;2023-05-09T11:50:29;100990.34;;;20.22;43.18
20656;BME280;10487;53.320;8.672;2023-05-09T11:53:30;101000.47;;;20.28;42.90
20656;BME280;10487;53.320;8.672;2023-05-09T11:56:37;100997.94;;;20.35;42.97
20656;BME280;10487;53.320;8.672;2023-05-09T11:59:40;100976.41;;;20.41;43.05
20656;BME280;10487;53.320;8.672;2023-05-09T12:02:43;100985.25;;;20.51;42.88
20656;BME280;10487;53.320;8.672;2023-05-09T12:05:49;100983.53;;;20.58;42.76
20656;BME280;10487;53.320;8.672;2023-05-09T12:08:51;100977.09;;;20.67;42.59
20656;BME280;10487;53.320;8.672;2023-05-09T12:11:55;100969.44;;;20.79;42.73
20656;BME280;10487;53.320;8.672;2023-05-09T12:15:01;100973.28;;;20.93;42.61
20656;BME280;10487;53.320;8.672;2023-05-09T12:18:06;100965.47;;;20.98;42.46
20656;BME280;10487;53.320;8.672;2023-05-09T12:21:08;100948.69;;;21.02;42.50
20656;BME280;10487;53.320;8.672;2023-05-09T12:24:10;100944.75;;;21.13;42.37
20656;BME280;10487;53.320;8.672;2023-05-09T12:27:12;100946.59;;;21.20;42.27
20656;BME280;10487;53.320;8.672;2023-05-09T12:30:14;100940.50;;;21.18;42.38
20656;BME280;10487;53.320;8.672;2023-05-09T12:33:16;100933.00;;;21.20;42.13
20656;BME280;10487;53.320;8.672;2023-05-09T12:36:18;100927.25;;;21.23;42.14
20656;BME280;10487;53.320;8.672;2023-05-09T12:39:20;100922.16;;;21.20;42.16
20656;BME280;10487;53.320;8.672;2023-05-09T12:42:26;100920.13;;;21.22;42.26
20656;BME280;10487;53.320;8.672;2023-05-09T12:45:31;100919.63;;;21.19;42.19
20656;BME280;10487;53.320;8.672;2023-05-09T12:48:36;100917.94;;;21.18;42.17
20656;BME280;10487;53.320;8.672;2023-05-09T12:51:49;100908.59;;;21.20;41.99
20656;BME280;10487;53.320;8.672;2023-05-09T12:54:52;100906.69;;;21.29;42.11
20656;BME280;10487;53.320;8.672;2023-05-09T12:58:01;100901.56;;;21.34;41.72
20656;BME280;10487;53.320;8.672;2023-05-09T13:01:04;100902.13;;;21.29;41.94
20656;BME280;10487;53.320;8.672;2023-05-09T13:04:06;100900.28;;;21.22;41.90
20656;BME280;10487;53.320;8.672;2023-05-09T13:07:08;100887.78;;;21.13;41.83
20656;BME280;10487;53.320;8.672;2023-05-09T13:10:14;100892.19;;;21.06;41.84
20656;BME280;10487;53.320;8.672;2023-05-09T13:13:19;100884.25;;;21.04;41.71
20656;BME280;10487;53.320;8.672;2023-05-09T13:16:22;100874.41;;;21.11;41.91
20656;BME280;10487;53.320;8.672;2023-05-09T13:19:24;100875.38;;;21.10;41.78
20656;BME280;10487;53.320;8.672;2023-05-09T13:22:25;100874.94;;;20.99;41.74
20656;BME280;10487;53.320;8.672;2023-05-09T13:25:27;100869.56;;;20.91;41.80
20656;BME280;10487;53.320;8.672;2023-05-09T13:28:29;100874.66;;;20.86;41.63
20656;BME280;10487;53.320;8.672;2023-05-09T13:31:31;100850.97;;;20.80;41.77
20656;BME280;10487;53.320;8.672;2023-05-09T13:34:32;100864.03;;;20.76;41.71
20656;BME280;10487;53.320;8.672;2023-05-09T13:37:34;100866.09;;;20.74;41.71
20656;BME280;10487;53.320;8.672;2023-05-09T13:40:36;100860.34;;;20.69;41.48
20656;BME280;10487;53.320;8.672;2023-05-09T13:43:38;100860.03;;;20.64;41.65
20656;BME280;10487;53.320;8.672;2023-05-09T13:46:43;100844.97;;;20.53;41.67
20656;BME280;10487;53.320;8.672;2023-05-09T13:49:46;100846.69;;;20.46;41.62
20656;BME280;10487;53.320;8.672;2023-05-09T13:52:48;100840.59;;;20.44;41.89
20656;BME280;10487;53.320;8.672;2023-05-09T13:55:50;100833.34;;;20.45;41.57
20656;BME280;10487;53.320;8.672;2023-05-09T13:58:52;100828.91;;;20.44;41.62
20656;BME280;10487;53.320;8.672;2023-05-09T14:01:54;100836.06;;;20.45;41.34
20656;BME280;10487;53.320;8.672;2023-05-09T14:04:57;100826.88;;;20.46;41.60
20656;BME280;10487;53.320;8.672;2023-05-09T14:07:59;100822.63;;;20.43;41.60
20656;BME280;10487;53.320;8.672;2023-05-09T14:11:02;100817.09;;;20.45;41.61
20656;BME280;10487;53.320;8.672;2023-05-09T14:14:03;100818.75;;;20.46;41.51
20656;BME280;10487;53.320;8.672;2023-05-09T14:17:05;100820.97;;;20.42;41.62
20656;BME280;10487;53.320;8.672;2023-05-09T14:20:07;100806.56;;;20.42;41.65
20656;BME280;10487;53.320;8.672;2023-05-09T14:23:09;100795.22;;;20.46;41.46
20656;BME280;10487;53.320;8.672;2023-05-09T14:26:10;100801.28;;;20.48;41.59
20656;BME280;10487;53.320;8.672;2023-05-09T14:29:12;100793.00;;;20.50;41.51
20656;BME280;10487;53.320;8.672;2023-05-09T14:32:14;100790.31;;;20.50;41.57
20656;BME280;10487;53.320;8.672;2023-05-09T14:35:15;100774.50;;;20.53;41.62
20656;BME280;10487;53.320;8.672;2023-05-09T14:38:17;100775.88;;;20.57;41.46
20656;BME280;10487;53.320;8.672;2023-05-09T14:41:19;100780.44;;;20.57;41.61
20656;BME280;10487;53.320;8.672;2023-05-09T14:44:21;100758.91;;;20.55;41.45
20656;BME280;10487;53.320;8.672;2023-05-09T14:47:25;100755.53;;;20.53;41.42
20656;BME280;10487;53.320;8.672;2023-05-09T14:50:26;100754.22;;;20.49;41.45
20656;BME280;10487;53.320;8.672;2023-05-09T14:53:28;100753.72;;;20.46;41.09
20656;BME280;10487;53.320;8.672;2023-05-09T14:56:30;100752.53;;;20.40;41.62
20656;BME280;10487;53.320;8.672;2023-05-09T14:59:31;100751.19;;;20.36;41.53
20656;BME280;10487;53.320;8.672;2023-05-09T15:02:38;100754.97;;;20.27;41.36
20656;BME280;10487;53.320;8.672;2023-05-09T15:05:40;100745.34;;;20.17;41.39
20656;BME280;10487;53.320;8.672;2023-05-09T15:08:42;100747.25;;;20.08;41.43
20656;BME280;10487;53.320;8.672;2023-05-09T15:11:44;100740.00;;;20.00;41.54
20656;BME280;10487;53.320;8.672;2023-05-09T15:14:49;100725.09;;;19.96;41.34
20656;BME280;10487;53.320;8.672;2023-05-09T15:17:54;100728.66;;;19.97;41.24
20656;BME280;10487;53.320;8.672;2023-05-09T15:20:55;100725.94;;;19.97;41.33
20656;BME280;10487;53.320;8.672;2023-05-09T15:23:57;100720.88;;;19.94;41.05
20656;BME280;10487;53.320;8.672;2023-05-09T15:26:59;100713.78;;;19.93;41.43
20656;BME280;10487;53.320;8.672;2023-05-09T15:30:01;100715.97;;;19.97;41.42
20656;BME280;10487;53.320;8.672;2023-05-09T15:33:03;100712.75;;;20.02;41.35
20656;BME280;10487;53.320;8.672;2023-05-09T15:36:05;100722.56;;;20.03;41.24
20656;BME280;10487;53.320;8.672;2023-05-09T15:39:07;100712.75;;;20.02;41.34
20656;BME280;10487;53.320;8.672;2023-05-09T15:42:09;100712.06;;;20.00;41.19
20656;BME280;10487;53.320;8.672;2023-05-09T15:45:12;100706.66;;;20.00;41.31
20656;BME280;10487;53.320;8.672;2023-05-09T15:48:14;100706.81;;;19.98;41.27
20656;BME280;10487;53.320;8.672;2023-05-09T15:51:16;100697.56;;;19.93;41.33
20656;BME280;10487;53.320;8.672;2023-05-09T15:54:18;100694.53;;;19.88;41.09
20656;BME280;10487;53.320;8.672;2023-05-09T15:57:20;100690.13;;;19.87;41.24
20656;BME280;10487;53.320;8.672;2023-05-09T16:00:22;100687.94;;;19.82;41.05
20656;BME280;10487;53.320;8.672;2023-05-09T16:03:24;100676.94;;;19.76;41.13
20656;BME280;10487;53.320;8.672;2023-05-09T16:06:26;100674.56;;;19.73;41.20
20656;BME280;10487;53.320;8.672;2023-05-09T16:09:28;100670.34;;;19.70;41.04
20656;BME280;10487;53.320;8.672;2023-05-09T16:12:30;100667.97;;;19.67;41.18